Time;durP1;ratioP1;P1;durP2;ratioP2;P2;SDS_P1;SDS_P2;PMS_P1;PMS_P2;Temp;Humidity;BMP_temperature;BMP_pressure;BME280_temperature;BME280_humidity;BME280_pressure;Samples;Min_cycle;Max_cycle;Signal;HPM_P1;HPM_P2
2022/10/14 00:01:23;;;;;;;9.52;5.07;;;14.30;99.90;;;17.26;55.60;97805.59;5042228;28;20042;-50
2022/10/14 00:03:52;;;;;;;7.47;5.63;;;14.30;99.90;;;17.24;55.58;97802.28;5042456;28;20217;-52
2022/10/14 00:06:25;;;;;;;6.32;4.13;;;14.20;99.90;;;17.23;55.67;97804.13;5042686;28;20045;-51
2022/10/14 00:08:53;;;;;;;7.32;4.57;;;14.20;99.90;;;17.26;55.53;97794.84;5042021;28;20045;-52
2022/10/14 00:11:25;;;;;;;8.05;4.93;;;14.20;99.90;;;17.22;55.47;97790.88;5042228;28;20049;-48
2022/10/14 00:14:00;;;;;;;7.93;5.20;;;14.20;99.90;;;17.18;55.55;97795.84;5041119;28;20052;-47
2022/10/14 00:16:35;;;;;;;7.88;5.13;;;14.10;99.90;;;17.19;55.35;97794.78;5041801;28;20045;-48
2022/10/14 00:19:04;;;;;;;7.32;4.45;;;14.10;99.90;;;17.22;55.37;97793.59;5041945;28;20263;-49
2022/10/14 00:21:33;;;;;;;7.88;4.55;;;14.20;99.90;;;17.21;55.45;97794.59;5042024;28;20052;-49
2022/10/14 00:24:01;;;;;;;8.88;4.13;;;14.20;99.90;;;17.19;55.10;97797.47;5042142;28;20045;-49
2022/10/14 00:26:34;;;;;;;7.30;4.40;;;14.20;99.90;;;17.24;55.58;97794.22;5040657;28;20049;-48
2022/10/14 00:29:05;;;;;;;7.50;4.78;;;14.20;99.90;;;17.26;55.21;97800.22;5041856;28;20049;-49
2022/10/14 00:31:34;;;;;;;6.72;4.50;;;14.20;99.90;;;17.26;55.23;97801.03;5042095;28;20056;-50
2022/10/14 00:34:02;;;;;;;9.52;4.57;;;14.20;99.90;;;17.24;55.10;97796.91;5041413;28;20058;-47
2022/10/14 00:36:30;;;;;;;7.45;4.57;;;14.20;99.90;;;17.24;55.16;97799.59;5041512;28;20103;-49
2022/10/14 00:38:58;;;;;;;5.95;4.65;;;14.20;99.90;;;17.23;55.25;97801.44;5041850;28;20340;-47
2022/10/14 00:41:30;;;;;;;6.88;4.15;;;14.20;99.90;;;17.22;55.41;97809.72;5041760;28;20048;-49
2022/10/14 00:44:14;;;;;;;7.60;5.10;;;14.20;99.90;;;17.18;55.33;97798.53;5041927;28;20044;-52
2022/10/14 00:46:47;;;;;;;8.43;4.83;;;14.10;99.90;;;17.21;55.34;97799.97;5040359;28;20239;-50
2022/10/14 00:49:34;;;;;;;7.32;4.35;;;14.10;99.90;;;17.21;55.42;97803.50;5042097;28;20053;-49
2022/10/14 00:52:10;;;;;;;6.28;4.60;;;14.10;99.90;;;17.23;55.41;97806.00;5040852;28;20053;-47
2022/10/14 00:54:50;;;;;;;5.50;4.18;;;14.10;99.90;;;17.21;55.34;97808.06;5041618;28;20053;-49
2022/10/14 00:57:18;;;;;;;7.07;4.57;;;14.10;99.90;;;17.19;55.27;97802.84;5025299;28;20064;-53
2022/10/14 00:59:47;;;;;;;6.93;3.97;;;14.10;99.90;;;17.20;55.19;97806.41;5041144;28;20055;-50
2022/10/14 01:02:14;;;;;;;6.30;4.30;;;14.20;99.90;;;17.17;55.39;97802.22;5040617;28;20037;-49
2022/10/14 01:04:44;;;;;;;8.70;5.53;;;14.10;99.90;;;17.13;55.44;97806.34;5054289;28;20052;-52
2022/10/14 01:07:14;;;;;;;7.68;4.45;;;14.10;99.90;;;17.12;55.66;97805.53;5040193;28;20045;-50
2022/10/14 01:10:31;;;;;;;8.43;5.85;;;14.10;99.90;;;17.12;55.79;97802.84;5041600;28;20049;-47
2022/10/14 01:13:20;;;;;;;8.93;4.63;;;14.10;99.90;;;17.15;55.69;97803.47;5041589;28;20248;-48
2022/10/14 01:16:17;;;;;;;6.57;4.72;;;14.10;99.90;;;17.14;55.66;97797.28;5045408;28;20049;-48
2022/10/14 01:18:56;;;;;;;7.15;5.18;;;14.10;99.90;;;17.16;55.71;97808.66;5059171;28;20053;-47
2022/10/14 01:21:41;;;;;;;11.57;4.90;;;14.20;99.90;;;17.16;55.58;97797.91;5045011;28;20037;-47
2022/10/14 01:25:02;;;;;;;8.15;4.40;;;14.10;99.90;;;17.15;55.73;97803.47;5044176;28;20046;-50
2022/10/14 01:28:03;;;;;;;6.65;4.65;;;14.10;99.90;;;17.06;55.98;97792.03;5062388;28;20045;-47
2022/10/14 01:30:41;;;;;;;6.32;4.53;;;14.00;99.90;;;17.05;56.11;97795.75;5044916;28;20067;-50
2022/10/14 01:33:24;;;;;;;8.07;4.45;;;14.00;99.90;;;17.03;56.44;97787.06;5028799;28;20051;-51
2022/10/14 01:36:06;;;;;;;10.65;4.70;;;14.00;99.90;;;17.01;56.21;97784.56;5044045;28;20041;-51
2022/10/14 01:38:45;;;;;;;6.22;4.22;;;14.00;99.90;;;17.03;56.23;97787.88;5044581;28;20049;-52
2022/10/14 01:41:17;;;;;;;7.13;4.40;;;14.00;99.90;;;17.02;56.22;97788.94;5043969;28;20055;-50
2022/10/14 01:43:49;;;;;;;10.52;4.75;;;14.00;99.90;;;17.04;55.89;97783.34;5043904;28;20045;-50
2022/10/14 01:46:21;;;;;;;8.27;4.45;;;14.10;99.90;;;17.05;56.06;97785.84;5043479;28;20343;-50
2022/10/14 01:48:57;;;;;;;7.00;3.88;;;14.10;99.90;;;17.07;55.89;97785.63;5043312;28;20044;-50
2022/10/14 01:51:58;;;;;;;8.43;4.47;;;14.20;99.90;;;17.05;56.00;97782.31;5043543;28;20049;-50
2022/10/14 01:54:33;;;;;;;7.72;4.40;;;14.10;99.90;;;17.02;56.08;97780.88;5043400;28;20060;-53
2022/10/14 01:57:10;;;;;;;5.32;4.03;;;14.10;99.90;;;17.02;55.71;97780.88;5042554;28;20373;-50
2022/10/14 01:59:40;;;;;;;6.63;4.13;;;14.10;99.90;;;17.02;55.70;97785.38;5027619;28;20045;-51
2022/10/14 02:02:10;;;;;;;6.10;3.65;;;14.10;99.90;;;16.93;56.16;97787.44;5043356;28;20056;-50
2022/10/14 02:04:40;;;;;;;6.05;3.92;;;14.00;99.90;;;16.94;56.22;97789.06;5043203;28;20056;-50
2022/10/14 02:07:26;;;;;;;6.45;3.90;;;14.00;99.90;;;16.86;56.38;97795.44;5060040;28;20168;-49
2022/10/14 02:10:36;;;;;;;4.97;3.70;;;13.90;99.90;;;16.91;56.70;97797.56;5044243;28;20045;-48
2022/10/14 02:13:57;;;;;;;6.53;4.15;;;14.00;99.90;;;16.88;56.91;97796.06;5044798;28;20063;-48
2022/10/14 02:17:08;;;;;;;6.38;4.07;;;14.00;99.90;;;16.87;57.13;97796.28;5015129;28;20239;-48
2022/10/14 02:19:55;;;;;;;4.60;3.45;;;13.90;99.90;;;16.87;57.44;97791.75;5057806;28;20056;-49
2022/10/14 02:22:46;;;;;;;6.07;3.70;;;13.90;99.90;;;16.83;57.83;97789.66;5042960;28;20041;-48
2022/10/14 02:25:33;;;;;;;6.63;3.67;;;13.80;99.90;;;16.84;57.79;97783.22;5041859;28;20302;-49
2022/10/14 02:28:03;;;;;;;6.45;3.80;;;13.80;99.90;;;16.81;58.21;97775.53;5026777;28;20251;-49
2022/10/14 02:30:37;;;;;;;8.07;3.95;;;13.70;99.90;;;16.79;58.50;97772.19;5043092;28;20056;-48
2022/10/14 02:33:07;;;;;;;8.40;3.80;;;13.70;99.90;;;16.76;58.54;97765.38;5042807;28;20064;-47
2022/10/14 02:35:38;;;;;;;6.40;3.50;;;13.70;99.90;;;16.72;58.74;97759.56;5059155;28;20056;-49
2022/10/14 02:38:07;;;;;;;7.68;3.97;;;13.60;99.90;;;16.75;59.10;97750.28;5041942;28;20050;-51
2022/10/14 02:40:42;;;;;;;8.48;4.85;;;13.70;99.90;;;16.81;58.69;97748.63;5042557;28;20041;-50
2022/10/14 02:43:11;;;;;;;7.40;3.72;;;13.70;99.90;;;16.84;58.81;97746.41;5042357;28;20045;-47
2022/10/14 02:45:41;;;;;;;6.18;4.03;;;13.80;99.90;;;16.86;58.79;97747.03;5042463;28;20053;-49
2022/10/14 02:48:11;;;;;;;6.20;3.80;;;13.80;99.90;;;16.88;58.87;97742.28;5043085;28;20049;-48
2022/10/14 02:50:40;;;;;;;7.25;3.20;;;13.80;99.90;;;16.84;58.89;97745.59;5043523;28;20049;-48
2022/10/14 02:53:13;;;;;;;5.82;3.75;;;13.80;99.90;;;16.80;58.99;97739.75;5025784;28;20053;-51
2022/10/14 02:55:43;;;;;;;8.32;3.63;;;13.70;99.90;;;16.82;59.15;97736.91;5026603;28;20059;-54
2022/10/14 02:58:11;;;;;;;6.38;3.28;;;13.70;99.90;;;16.82;59.14;97739.59;5042826;28;20242;-50
2022/10/14 03:00:39;;;;;;;6.10;3.47;;;13.80;99.90;;;16.82;59.04;97740.41;5043471;28;20362;-49
2022/10/14 03:03:07;;;;;;;5.78;3.65;;;13.70;99.90;;;16.81;59.32;97730.66;5042335;28;20045;-49
2022/10/14 03:05:35;;;;;;;6.95;4.50;;;13.70;99.90;;;16.79;59.46;97730.03;5042110;28;20051;-49
2022/10/14 03:08:09;;;;;;;;;;;13.70;99.90;;;16.91;58.72;97719.56;5042066;28;20049;-49
2022/10/14 03:10:38;;;;;;;6.13;3.65;;;13.70;99.90;;;16.89;58.86;97719.78;5041889;28;20203;-48
2022/10/14 03:13:09;;;;;;;6.40;3.58;;;13.70;99.90;;;16.84;59.24;97707.94;5059157;28;20053;-49
2022/10/14 03:15:42;;;;;;;6.30;4.00;;;13.80;99.90;;;16.82;59.30;97718.06;5042039;28;20355;-50
2022/10/14 03:18:11;;;;;;;4.72;3.33;;;13.80;99.90;;;16.82;59.25;97716.22;5041033;28;20217;-51
2022/10/14 03:20:44;;;;;;;5.28;3.70;;;13.80;99.90;;;16.81;59.45;97717.22;5042388;28;20320;-49
2022/10/14 03:23:16;;;;;;;4.20;3.15;;;13.80;99.90;;;16.83;59.35;97715.19;5041992;28;20045;-49
2022/10/14 03:25:48;;;;;;;4.88;3.30;;;13.80;99.90;;;16.82;59.24;97708.16;5041499;28;20169;-49
2022/10/14 03:28:22;;;;;;;;;;;13.80;99.90;;;16.90;58.96;97699.94;5042023;28;20241;-52
2022/10/14 03:31:00;;;;;;;6.45;3.47;;;13.80;99.90;;;16.88;59.10;97701.97;5041950;28;19923;-48
2022/10/14 03:33:45;;;;;;;7.50;3.70;;;13.80;99.90;;;16.82;59.21;97705.47;5042125;28;20055;-50
2022/10/14 03:36:17;;;;;;;8.95;4.05;;;13.80;99.90;;;16.77;59.22;97698.97;5057358;28;20050;-51
2022/10/14 03:38:50;;;;;;;5.68;3.53;;;13.70;99.90;;;16.74;59.60;97698.34;5057433;28;20051;-49
2022/10/14 03:41:32;;;;;;;6.97;4.40;;;13.70;99.90;;;16.71;59.38;97690.72;5041647;28;20124;-48
2022/10/14 03:44:00;;;;;;;6.13;3.80;;;13.60;99.90;;;16.69;59.57;97690.06;5042535;28;20047;-51
2022/10/14 03:46:28;;;;;;;9.80;4.53;;;13.60;99.90;;;16.69;59.54;97683.84;5057567;28;20059;-49
2022/10/14 03:48:57;;;;;;;6.82;4.40;;;13.60;99.90;;;16.72;59.69;97688.84;5041396;28;20049;-48
2022/10/14 03:51:25;;;;;;;6.15;4.25;;;13.70;99.90;;;16.74;59.48;97684.09;5024874;28;20057;-48
2022/10/14 03:54:01;;;;;;;7.00;5.13;;;13.80;99.90;;;16.76;59.37;97684.72;5041217;28;20053;-48
2022/10/14 03:56:29;;;;;;;6.93;4.85;;;13.80;99.90;;;16.72;59.43;97672.72;5057471;28;20067;-49
2022/10/14 03:58:57;;;;;;;7.28;4.40;;;13.80;99.90;;;16.68;59.41;97674.97;5041004;28;20055;-51
2022/10/14 04:01:25;;;;;;;9.02;4.72;;;13.80;99.90;;;16.64;59.69;97670.19;5041465;28;20056;-48
2022/10/14 04:04:19;;;;;;;9.95;5.28;;;13.70;99.90;;;16.68;59.51;97674.97;5039485;28;20049;-49
2022/10/14 04:06:47;;;;;;;11.38;4.88;;;13.70;99.90;;;16.64;59.33;97664.81;5041458;28;20052;-51
2022/10/14 04:09:17;;;;;;;7.85;4.78;;;13.60;99.90;;;16.65;59.39;97663.78;5040856;28;20060;-50
2022/10/14 04:11:45;;;;;;;8.02;5.07;;;13.70;99.90;;;16.66;59.47;97652.00;5025593;28;20075;-48
2022/10/14 04:14:48;;;;;;;6.15;4.45;;;13.80;99.90;;;16.69;59.14;97665.03;5046800;28;20385;-49
2022/10/14 04:17:16;;;;;;;15.07;6.25;;;13.80;99.90;;;16.69;59.32;97662.34;5056852;28;20056;-50
2022/10/14 04:19:45;;;;;;;10.07;5.82;;;13.80;99.90;;;16.70;59.25;97656.78;5039780;28;20247;-48
2022/10/14 04:22:17;;;;;;;11.25;5.38;;;13.80;99.90;;;16.69;59.26;97652.44;5025687;28;20217;-49
2022/10/14 04:24:50;;;;;;;8.80;6.30;;;13.70;99.90;;;16.69;59.34;97648.91;5040925;28;20059;-49
2022/10/14 04:27:18;;;;;;;7.88;5.78;;;13.70;99.90;;;16.68;59.29;97649.94;5041733;28;20041;-49
2022/10/14 04:29:52;;;;;;;10.57;6.05;;;13.60;99.90;;;16.67;59.50;97653.66;5041356;28;20049;-49
2022/10/14 04:32:27;;;;;;;9.32;5.72;;;13.60;99.90;;;16.69;59.14;97643.53;5042498;28;20347;-52
2022/10/14 04:34:55;;;;;;;11.15;6.18;;;13.70;99.90;;;16.67;59.30;97651.81;5040765;28;20229;-48
2022/10/14 04:37:26;;;;;;;9.43;6.47;;;13.60;99.90;;;16.68;59.29;97645.41;5042114;28;20063;-48
2022/10/14 04:40:00;;;;;;;13.27;7.60;;;13.60;99.90;;;16.69;59.48;97643.53;5040785;28;20053;-49
2022/10/14 04:42:30;;;;;;;12.07;6.60;;;13.60;99.90;;;16.68;59.29;97640.03;5057465;28;20272;-49
2022/10/14 04:45:04;;;;;;;10.95;6.45;;;13.60;99.90;;;16.65;59.53;97637.75;5040723;28;20229;-49
2022/10/14 04:47:44;;;;;;;12.50;6.68;;;13.60;99.90;;;16.64;59.38;97635.25;5040969;28;20059;-48
2022/10/14 04:50:18;;;;;;;8.20;6.45;;;13.50;99.90;;;16.64;59.53;97643.31;5043670;28;20052;-51
2022/10/14 04:53:05;;;;;;;11.43;7.00;;;13.60;99.90;;;16.65;59.45;97632.38;5047793;28;20052;-48
2022/10/14 04:55:48;;;;;;;12.70;6.60;;;13.60;99.90;;;16.66;59.51;97628.63;5044385;28;20258;-48
2022/10/14 04:58:16;;;;;;;10.68;6.63;;;13.70;99.90;;;16.70;59.43;97629.91;5043841;28;20271;-50
2022/10/14 05:00:47;;;;;;;11.93;6.60;;;13.80;99.90;;;16.72;59.46;97617.09;5028255;28;20079;-48
2022/10/14 05:03:31;;;;;;;10.88;6.18;;;13.80;99.90;;;16.78;59.29;97614.63;5044566;28;20053;-51
2022/10/14 05:05:59;;;;;;;9.63;6.85;;;13.90;99.90;;;16.76;59.26;97606.75;5044524;28;20045;-48
2022/10/14 05:08:27;;;;;;;10.13;7.40;;;14.00;99.90;;;16.75;59.60;97610.50;5043492;28;20056;-51
2022/10/14 05:10:59;;;;;;;8.63;6.75;;;13.90;99.90;;;16.71;59.32;97607.38;5044847;28;20059;-50
2022/10/14 05:13:41;;;;;;;9.80;7.00;;;13.90;99.90;;;16.69;59.29;97603.22;5044783;28;20271;-50
2022/10/14 05:16:09;;;;;;;11.68;7.88;;;13.90;99.90;;;16.66;59.42;97599.06;5060244;28;20045;-52
2022/10/14 05:18:39;;;;;;;9.10;5.93;;;13.90;99.90;;;16.64;59.52;97603.81;5042440;28;20351;-49
2022/10/14 05:21:09;;;;;;;12.05;7.28;;;13.90;99.90;;;16.68;59.68;97604.25;5044142;28;20255;-50
2022/10/14 05:24:03;;;;;;;12.50;6.07;;;13.90;99.90;;;16.74;59.21;97601.59;5047077;28;20060;-50
2022/10/14 05:26:33;;;;;;;10.10;6.10;;;13.90;99.90;;;16.73;59.62;97597.25;5044658;28;20044;-51
2022/10/14 05:29:05;;;;;;;12.55;6.95;;;13.90;99.90;;;16.73;59.58;97597.25;5043765;28;20053;-52
2022/10/14 05:31:33;;;;;;;10.00;7.38;;;13.90;99.90;;;16.77;59.48;97595.00;5045028;28;20053;-51
2022/10/14 05:34:07;;;;;;;11.32;6.85;;;14.00;99.90;;;16.80;59.43;97591.06;5043872;28;20240;-50
2022/10/14 05:36:36;;;;;;;12.05;6.47;;;14.00;99.90;;;16.81;59.57;97588.19;5043485;28;20061;-55
2022/10/14 05:39:10;;;;;;;11.57;7.70;;;13.90;99.90;;;16.84;59.32;97586.97;5060527;28;20049;-50
2022/10/14 05:41:39;;;;;;;9.43;6.88;;;13.90;99.90;;;16.84;59.41;97586.97;5043844;28;20052;-51
2022/10/14 05:44:10;;;;;;;10.35;6.40;;;13.90;99.90;;;16.83;59.17;97586.16;5043752;28;20045;-49
2022/10/14 05:46:39;;;;;;;13.52;6.22;;;14.00;99.90;;;16.84;59.30;97579.72;5060337;28;20056;-50
2022/10/14 05:49:10;;;;;;;10.90;6.95;;;13.90;99.90;;;16.83;59.50;97582.63;5060497;28;20049;-49
2022/10/14 05:51:38;;;;;;;10.40;7.03;;;13.80;99.90;;;16.83;59.39;97586.16;5043665;28;20053;-49
2022/10/14 05:54:13;;;;;;;14.98;7.55;;;13.90;99.90;;;16.80;59.27;97575.75;5043603;28;20053;-51
2022/10/14 05:56:43;;;;;;;14.93;8.63;;;13.80;99.90;;;16.83;59.55;97583.47;5042635;28;20360;-50
2022/10/14 05:59:12;;;;;;;15.90;7.45;;;13.90;99.90;;;16.85;59.22;97581.41;5027016;28;20059;-54
2022/10/14 06:01:40;;;;;;;13.63;6.20;;;13.90;99.90;;;16.83;59.39;97572.69;5044894;28;20112;-52
2022/10/14 06:04:15;;;;;;;12.93;6.57;;;13.90;99.90;;;16.87;59.25;97573.13;5059779;28;20046;-50
2022/10/14 06:06:43;;;;;;;13.90;6.32;;;13.90;99.90;;;16.87;59.17;97583.88;5026949;28;20064;-51
2022/10/14 06:09:12;;;;;;;9.73;6.10;;;13.90;99.90;;;16.88;59.31;97575.59;5043245;28;20045;-50
2022/10/14 06:11:40;;;;;;;12.43;6.82;;;13.90;99.90;;;16.88;59.37;97583.66;5043057;28;20060;-50
2022/10/14 06:14:08;;;;;;;10.40;6.47;;;13.90;99.90;;;16.88;59.29;97588.22;5043066;28;20232;-50
2022/10/14 06:16:37;;;;;;;11.85;6.03;;;13.90;99.90;;;16.87;59.29;97595.47;5043080;28;20057;-52
2022/10/14 06:19:06;;;;;;;14.40;6.53;;;13.80;99.90;;;16.90;59.10;97592.38;5043277;28;20356;-50
2022/10/14 06:21:34;;;;;;;11.93;7.93;;;13.90;99.90;;;16.94;59.11;97584.72;5043098;28;20071;-53
2022/10/14 06:24:02;;;;;;;12.38;6.00;;;13.90;99.90;;;16.95;59.07;97581.00;5043411;28;20049;-52
2022/10/14 06:26:30;;;;;;;9.50;6.20;;;13.90;99.90;;;16.96;59.06;97590.72;5043895;28;20049;-54
2022/10/14 06:28:58;;;;;;;8.23;5.32;;;13.90;99.90;;;17.01;58.84;97590.13;5044742;28;20055;-51
2022/10/14 06:31:26;;;;;;;11.38;5.82;;;14.00;99.90;;;16.99;58.86;97581.44;5043867;28;20235;-50
2022/10/14 06:33:59;;;;;;;11.55;5.88;;;14.00;99.90;;;16.99;58.92;97587.63;5043921;28;20052;-52
2022/10/14 06:36:27;;;;;;;15.02;6.28;;;14.10;99.90;;;17.01;59.14;97582.06;5043863;28;20049;-55
2022/10/14 06:38:55;;;;;;;11.48;6.25;;;14.10;99.90;;;17.05;58.67;97584.13;5043691;28;20041;-52
2022/10/14 06:41:23;;;;;;;10.55;5.75;;;14.10;99.90;;;17.05;58.86;97586.00;5043634;28;20048;-50
2022/10/14 06:43:52;;;;;;;8.05;5.60;;;14.20;99.90;;;17.07;58.85;97582.06;5043803;28;20045;-51
2022/10/14 06:46:19;;;;;;;13.30;6.57;;;14.20;99.90;;;17.11;58.53;97577.09;5043413;28;20045;-53
2022/10/14 06:48:47;;;;;;;9.57;5.20;;;14.20;99.90;;;17.16;58.74;97576.47;5044168;28;20053;-51
2022/10/14 06:51:17;;;;;;;11.70;6.45;;;14.30;99.90;;;17.17;58.59;97581.66;5043391;28;20041;-53
2022/10/14 06:53:45;;;;;;;10.73;5.50;;;14.30;99.90;;;17.18;58.67;97579.81;5043406;28;20055;-51
2022/10/14 06:56:13;;;;;;;8.35;6.63;;;14.30;99.90;;;17.23;58.48;97575.44;5043342;28;20049;-51
2022/10/14 06:58:41;;;;;;;9.95;6.00;;;14.40;99.90;;;17.14;58.76;97574.00;5042604;28;20053;-50
2022/10/14 07:01:09;;;;;;;8.95;5.15;;;14.30;99.90;;;17.13;58.52;97569.66;5043265;28;20045;-49
2022/10/14 07:03:38;;;;;;;11.80;5.38;;;14.40;99.90;;;17.14;58.79;97563.25;5043129;28;20052;-52
2022/10/14 07:06:07;;;;;;;9.63;5.85;;;14.40;99.90;;;17.12;58.52;97563.44;5039784;28;20045;-55
2022/10/14 07:08:35;;;;;;;8.35;5.40;;;14.30;99.90;;;17.11;58.62;97569.84;5042938;28;20052;-54
2022/10/14 07:11:04;;;;;;;10.07;4.95;;;14.40;99.90;;;17.15;58.75;97580.22;5043207;28;20051;-53
2022/10/14 07:13:36;;;;;;;9.10;5.18;;;14.30;99.90;;;17.18;58.35;97582.50;5043139;28;20059;-52
2022/10/14 07:16:05;;;;;;;11.73;5.40;;;14.40;99.90;;;17.22;58.46;97581.06;5043109;28;20049;-53
2022/10/14 07:18:33;;;;;;;11.32;6.30;;;14.40;99.90;;;17.26;58.28;97576.91;5042636;28;20049;-52
2022/10/14 07:21:05;;;;;;;9.25;5.63;;;14.40;99.90;;;17.26;58.32;97572.34;5042783;28;20071;-53
2022/10/14 07:23:33;;;;;;;8.48;5.22;;;14.50;99.90;;;17.30;58.49;97576.28;5042970;28;20366;-51
2022/10/14 07:26:01;;;;;;;8.25;5.45;;;14.50;99.90;;;17.37;58.48;97579.00;5042852;28;20235;-50
2022/10/14 07:28:29;;;;;;;8.55;5.10;;;14.50;99.90;;;17.42;58.34;97576.50;5042515;28;20059;-49
2022/10/14 07:31:04;;;;;;;11.25;5.53;;;14.60;99.90;;;17.47;58.25;97571.34;5041549;28;20048;-51
2022/10/14 07:33:35;;;;;;;8.85;5.43;;;14.60;99.90;;;17.49;58.06;97577.34;5042764;28;20357;-53
2022/10/14 07:36:13;;;;;;;7.10;5.55;;;14.70;99.90;;;17.56;58.21;97580.03;5042286;28;20079;-50
2022/10/14 07:38:47;;;;;;;7.18;4.63;;;14.70;99.90;;;17.63;57.69;97585.41;5042342;28;20049;-51
2022/10/14 07:41:19;;;;;;;11.25;5.47;;;14.70;99.90;;;17.67;57.77;97581.28;5042323;28;20394;-51
2022/10/14 07:43:51;;;;;;;17.63;7.88;;;14.80;99.90;;;17.71;57.81;97587.91;5042514;28;20051;-50
2022/10/14 07:46:30;;;;;;;8.15;4.57;;;14.90;99.90;;;17.73;57.65;97583.13;5042276;28;20041;-50
2022/10/14 07:49:07;;;;;;;8.50;4.55;;;15.00;99.90;;;17.77;57.69;97588.94;5041552;28;20213;-51
2022/10/14 07:51:36;;;;;;;8.73;4.93;;;15.10;99.90;;;17.76;57.76;97585.41;5042667;28;20045;-51
2022/10/14 07:54:10;;;;;;;7.70;5.43;;;15.00;99.90;;;17.77;57.59;97587.06;5042830;28;20059;-52
2022/10/14 07:56:40;;;;;;;7.28;5.00;;;15.10;99.90;;;17.80;57.72;97583.13;5041865;28;20390;-51
2022/10/14 07:59:08;;;;;;;11.40;5.25;;;15.10;99.90;;;17.81;57.52;97580.22;5042247;28;20343;-53
2022/10/14 08:01:36;;;;;;;7.97;5.28;;;15.20;99.90;;;17.86;57.78;97582.31;5042223;28;20045;-51
2022/10/14 08:04:05;;;;;;;8.38;5.20;;;15.20;99.90;;;17.85;57.37;97586.88;5042609;28;20041;-50
2022/10/14 08:06:32;;;;;;;7.65;5.03;;;15.20;99.90;;;17.84;57.24;97584.41;5041070;28;20053;-52
2022/10/14 08:09:03;;;;;;;8.05;4.70;;;15.20;99.90;;;17.76;57.82;97579.19;5042119;28;20049;-48
2022/10/14 08:11:31;;;;;;;8.52;5.35;;;15.20;99.90;;;17.79;57.69;97576.91;5041640;28;20243;-53
2022/10/14 08:13:59;;;;;;;9.55;5.38;;;15.20;99.90;;;17.83;57.41;97577.31;5042758;28;20053;-52
2022/10/14 08:16:31;;;;;;;10.98;6.28;;;15.20;99.90;;;17.79;57.69;97570.69;5041526;28;20049;-52
2022/10/14 08:19:03;;;;;;;11.77;5.32;;;15.20;99.90;;;17.81;57.28;97566.75;5042173;28;20057;-52
2022/10/14 08:21:34;;;;;;;12.63;4.95;;;15.20;99.90;;;17.77;57.64;97573.59;5041094;28;20055;-54
2022/10/14 08:24:02;;;;;;;5.63;3.83;;;15.20;99.90;;;17.82;57.49;97571.09;5044929;28;20041;-51
2022/10/14 08:26:37;;;;;;;9.70;4.70;;;15.20;99.90;;;17.85;57.59;97565.31;5045828;28;20052;-55
2022/10/14 08:29:10;;;;;;;8.10;4.57;;;15.20;99.90;;;17.88;57.19;97567.59;5045718;28;20042;-53
2022/10/14 08:31:37;;;;;;;8.38;4.82;;;15.20;99.90;;;17.89;57.43;97563.88;5046143;28;20041;-54
2022/10/14 08:34:05;;;;;;;9.68;5.00;;;15.20;99.90;;;17.89;57.21;97571.13;5046298;28;20054;-52
2022/10/14 08:36:33;;;;;;;6.88;4.80;;;15.30;99.90;;;17.94;57.46;97565.13;5045659;28;20053;-54
2022/10/14 08:39:01;;;;;;;8.13;5.07;;;15.30;99.90;;;17.98;57.06;97563.66;5045902;28;20051;-51
2022/10/14 08:41:41;;;;;;;9.63;5.93;;;15.30;99.90;;;18.00;57.15;97561.59;5045866;28;20052;-53
2022/10/14 08:44:32;;;;;;;6.68;4.32;;;15.30;99.90;;;18.03;57.21;97562.00;5045703;28;20049;-52
2022/10/14 08:47:09;;;;;;;7.93;4.97;;;15.30;99.90;;;18.07;56.97;97563.22;5045208;28;20274;-51
2022/10/14 08:50:01;;;;;;;8.55;4.75;;;15.40;99.90;;;18.12;57.06;97564.44;5046137;28;20243;-49
2022/10/14 08:52:46;;;;;;;9.32;4.95;;;15.40;99.90;;;18.15;56.91;97564.03;5044555;28;20049;-52
2022/10/14 08:55:42;;;;;;;7.97;5.10;;;15.40;99.90;;;18.17;56.99;97570.88;5045624;28;20047;-54
2022/10/14 08:58:18;;;;;;;7.75;5.50;;;15.40;99.90;;;18.26;56.90;97579.53;5043962;28;20049;-50
2022/10/14 09:00:51;;;;;;;8.23;4.60;;;15.50;99.90;;;18.31;56.75;97566.25;5045902;28;20052;-48
2022/10/14 09:03:31;;;;;;;9.18;4.60;;;15.50;99.90;;;18.32;56.78;97561.69;5045182;28;20225;-50
2022/10/14 09:06:18;;;;;;;6.68;4.78;;;15.60;99.90;;;18.27;56.91;97559.66;5045590;28;20053;-54
2022/10/14 09:08:48;;;;;;;8.85;5.10;;;15.60;99.90;;;18.32;56.62;97557.16;5045077;28;20221;-50
2022/10/14 09:11:23;;;;;;;10.98;4.18;;;15.60;99.90;;;18.34;56.68;97557.75;5044296;28;20055;-51
2022/10/14 09:13:58;;;;;;;8.50;5.28;;;15.70;99.90;;;18.36;56.93;97560.22;5044449;28;20069;-51
2022/10/14 09:16:34;;;;;;;9.23;5.32;;;15.70;99.90;;;18.41;56.60;97552.34;5045568;28;20049;-51
2022/10/14 09:19:13;;;;;;;9.07;5.28;;;15.80;99.90;;;18.47;56.54;97557.69;5045227;28;20339;-48
2022/10/14 09:21:52;;;;;;;8.77;4.53;;;15.80;99.90;;;18.56;56.77;97557.47;5045183;28;20068;-50
2022/10/14 09:24:34;;;;;;;11.55;5.50;;;15.80;99.90;;;18.62;56.57;97556.59;5044024;28;20047;-51
2022/10/14 09:27:17;;;;;;;8.93;5.68;;;15.80;99.90;;;18.68;56.29;97561.13;5043641;28;20045;-49
2022/10/14 09:29:53;;;;;;;13.40;6.40;;;15.90;99.90;;;18.73;56.27;97561.31;5044985;28;20042;-49
2022/10/14 09:32:30;;;;;;;12.40;6.10;;;15.90;99.90;;;18.75;56.26;97561.94;5044114;28;20045;-51
2022/10/14 09:34:58;;;;;;;11.52;5.55;;;15.90;99.90;;;18.80;56.06;97561.31;5044293;28;20258;-48
2022/10/14 09:37:33;;;;;;;11.18;6.60;;;16.00;99.90;;;18.83;56.36;97564.41;5044266;28;20045;-49
2022/10/14 09:40:11;;;;;;;12.48;6.53;;;16.00;99.90;;;18.86;56.09;97560.44;5043817;28;20056;-52
2022/10/14 09:43:07;;;;;;;8.65;4.70;;;16.10;99.90;;;18.89;56.22;97554.63;5044118;28;20056;-51
2022/10/14 09:45:58;;;;;;;10.80;6.03;;;16.00;99.90;;;18.92;56.23;97550.66;5044428;28;20052;-51
2022/10/14 09:48:49;;;;;;;9.90;6.22;;;16.10;99.90;;;18.95;56.42;97558.31;5044136;28;20053;-50
2022/10/14 09:51:26;;;;;;;10.55;5.95;;;16.10;99.90;;;18.97;56.55;97548.97;5043611;28;20259;-49
2022/10/14 09:54:01;;;;;;;10.30;6.32;;;16.00;99.90;;;19.00;56.17;97545.84;5044726;28;20057;-53
2022/10/14 09:56:35;;;;;;;10.00;6.10;;;16.10;99.90;;;19.02;56.34;97542.94;5044217;28;20320;-48
2022/10/14 09:59:23;;;;;;;7.95;5.38;;;16.10;99.90;;;19.05;56.48;97537.91;5044466;28;20067;-51
2022/10/14 10:02:00;;;;;;;9.18;5.30;;;16.10;99.90;;;19.08;56.16;97534.78;5043319;28;20049;-50
2022/10/14 10:04:30;;;;;;;9.98;5.55;;;16.20;99.90;;;19.11;56.16;97535.38;5043293;28;20053;-53
2022/10/14 10:07:05;;;;;;;6.82;5.07;;;16.30;99.90;;;19.15;56.57;97526.63;5040380;28;20056;-49
2022/10/14 10:09:34;;;;;;;7.78;4.88;;;16.40;99.90;;;19.25;56.54;97523.44;5045031;28;20246;-52
2022/10/14 10:12:29;;;;;;;7.15;5.05;;;16.50;99.90;;;19.35;56.33;97518.41;5043865;28;20053;-53
2022/10/14 10:15:02;;;;;;;7.40;5.30;;;16.60;99.90;;;19.47;56.28;97521.19;5044128;28;20045;-51
2022/10/14 10:17:38;;;;;;;8.38;5.68;;;16.70;99.90;;;19.55;56.16;97512.81;5044417;28;20064;-50
2022/10/14 10:20:29;;;;;;;8.98;5.30;;;16.80;99.90;;;19.64;55.82;97516.88;5043141;28;20053;-52
2022/10/14 10:23:27;;;;;;;8.23;4.90;;;17.00;99.90;;;19.71;55.63;97507.88;5043922;28;20225;-53
2022/10/14 10:26:28;;;;;;;8.00;4.72;;;16.90;99.90;;;19.73;55.63;97503.94;5044052;28;20045;-49
2022/10/14 10:28:59;;;;;;;7.57;4.68;;;17.00;99.90;;;19.73;55.18;97495.84;5043866;28;20041;-51
2022/10/14 10:31:55;;;;;;;7.72;5.00;;;17.00;99.90;;;19.75;55.46;97499.13;5043947;28;20211;-50
2022/10/14 10:35:00;;;;;;;8.73;5.07;;;17.10;99.90;;;19.81;55.20;97495.56;5028364;28;20059;-51
2022/10/14 10:37:49;;;;;;;10.10;5.55;;;17.10;99.90;;;19.87;55.05;97491.13;5043344;28;20053;-50
2022/10/14 10:40:31;;;;;;;8.32;4.68;;;17.20;99.90;;;19.88;54.73;97486.56;5042722;28;20343;-52
2022/10/14 10:43:18;;;;;;;9.18;4.97;;;17.20;99.90;;;19.89;54.99;97472.84;5043642;28;20049;-51
2022/10/14 10:46:06;;;;;;;7.68;5.43;;;17.20;99.90;;;19.92;54.81;97468.84;5042444;28;20057;-53
2022/10/14 10:49:04;;;;;;;6.63;4.65;;;17.30;99.90;;;19.96;54.91;97465.47;5045153;28;20064;-50
2022/10/14 10:52:07;;;;;;;9.18;5.30;;;17.30;99.90;;;19.98;54.96;97471.47;5042595;28;20144;-53